createdAt,value
2022-11-29T00:00:08.920Z,100492.09
2022-11-29T00:02:36.616Z,100489.78
2022-11-29T00:05:04.314Z,100498.38
2022-11-29T00:07:31.979Z,100492.88
2022-11-29T00:09:59.467Z,100492.91
2022-11-29T00:12:26.955Z,100486.81
2022-11-29T00:14:54.450Z,100496.06
2022-11-29T00:17:23.322Z,100489.13
2022-11-29T00:19:50.954Z,100488.59
2022-11-29T00:22:18.486Z,100488.75
2022-11-29T00:24:46.149Z,100488.28
2022-11-29T00:27:13.821Z,100489.44
2022-11-29T00:29:41.263Z,100496.34
2022-11-29T00:32:08.713Z,100488.25
2022-11-29T00:34:37.980Z,100502.31
2022-11-29T00:37:05.489Z,100493.22
2022-11-29T00:39:33.060Z,100488.44
2022-11-29T00:42:00.537Z,100481.16
2022-11-29T00:44:28.056Z,100491.09
2022-11-29T00:46:55.524Z,100484.31
2022-11-29T00:49:23.006Z,100496.69
2022-11-29T00:51:51.899Z,100497.53
2022-11-29T00:54:19.435Z,100488.09
2022-11-29T00:56:46.970Z,100493.88
2022-11-29T00:59:14.425Z,100494.38
2022-11-29T01:01:42.038Z,100498.38
2022-11-29T01:04:09.583Z,100496.03
2022-11-29T01:06:37.305Z,100496.88
2022-11-29T01:09:06.753Z,100495.69
2022-11-29T01:11:34.434Z,100497.50
2022-11-29T01:14:03.893Z,100498.81
2022-11-29T01:16:32.135Z,100507.56
2022-11-29T01:19:00.337Z,100500.94
2022-11-29T01:21:27.927Z,100507.56
2022-11-29T01:23:55.743Z,100514.69
2022-11-29T01:26:26.002Z,100507.59
2022-11-29T01:28:55.297Z,100507.59
2022-11-29T01:31:25.121Z,100511.41
2022-11-29T01:33:54.598Z,100514.53
2022-11-29T01:36:22.173Z,100517.00
2022-11-29T01:38:49.662Z,100513.06
2022-11-29T01:41:19.300Z,100514.84
2022-11-29T01:44:01.088Z,100512.03
2022-11-29T01:46:29.392Z,100520.50
2022-11-29T01:49:01.727Z,100519.19
2022-11-29T01:51:29.556Z,100523.00
2022-11-29T01:53:57.132Z,100519.66
2022-11-29T01:56:25.407Z,100515.00
2022-11-29T01:58:53.109Z,100519.81
2022-11-29T02:01:22.050Z,100523.75
2022-11-29T02:03:49.743Z,100520.13
2022-11-29T02:06:17.631Z,100518.81
2022-11-29T02:08:45.153Z,100517.81
2022-11-29T02:11:49.673Z,100518.00
2022-11-29T02:14:29.886Z,100521.16
2022-11-29T02:17:02.651Z,100521.78
2022-11-29T02:19:54.716Z,100521.16
2022-11-29T02:22:25.652Z,100516.81
2022-11-29T02:25:07.734Z,100522.59
2022-11-29T02:28:03.384Z,100518.47
2022-11-29T02:30:47.357Z,100528.06
2022-11-29T02:33:33.793Z,100517.00
2022-11-29T02:36:13.386Z,100517.31
2022-11-29T02:39:04.449Z,100524.06
2022-11-29T02:41:45.464Z,100521.09
2022-11-29T02:44:38.170Z,100516.13
2022-11-29T02:47:16.887Z,100519.94
2022-11-29T02:50:05.654Z,100526.41
2022-11-29T02:52:39.297Z,100526.25
2022-11-29T02:55:10.937Z,100527.44
2022-11-29T02:57:43.752Z,100523.63
2022-11-29T03:00:14.851Z,100525.44
2022-11-29T03:02:49.268Z,100528.72
2022-11-29T03:05:21.515Z,100540.44
2022-11-29T03:07:54.722Z,100540.75
2022-11-29T03:10:30.581Z,100540.44
2022-11-29T03:12:59.595Z,100539.94
2022-11-29T03:15:31.025Z,100539.63
2022-11-29T03:18:09.730Z,100537.94
2022-11-29T03:20:46.601Z,100547.25
2022-11-29T03:23:19.644Z,100532.38
2022-11-29T03:25:50.217Z,100544.75
2022-11-29T03:28:20.463Z,100550.72
2022-11-29T03:30:53.761Z,100543.75
2022-11-29T03:33:27.413Z,100555.34
2022-11-29T03:36:00.612Z,100555.16
2022-11-29T03:38:34.076Z,100554.16
2022-11-29T03:41:06.825Z,100559.41
2022-11-29T03:43:40.546Z,100561.75
2022-11-29T03:46:12.531Z,100557.81
2022-11-29T03:48:43.843Z,100559.16
2022-11-29T03:51:15.859Z,100564.44
2022-11-29T03:53:49.205Z,100565.91
2022-11-29T03:56:25.118Z,100570.34
2022-11-29T03:58:56.455Z,100572.47
2022-11-29T04:01:38.822Z,100572.66
2022-11-29T04:04:42.928Z,100571.69
2022-11-29T04:07:27.771Z,100567.44
2022-11-29T04:10:07.834Z,100573.22
2022-11-29T04:13:04.963Z,100563.84
2022-11-29T04:16:03.000Z,100561.50
2022-11-29T04:18:54.698Z,100559.34
2022-11-29T04:21:32.011Z,100574.75
2022-11-29T04:24:32.953Z,100570.66
2022-11-29T04:27:40.287Z,100574.78
2022-11-29T04:30:15.304Z,100574.78
2022-11-29T04:33:08.563Z,100578.25
2022-11-29T04:36:32.987Z,100577.28
2022-11-29T04:39:08.678Z,100584.19
2022-11-29T04:41:55.573Z,100584.00
2022-11-29T04:44:38.578Z,100589.31
2022-11-29T04:47:20.819Z,100591.94
2022-11-29T04:50:00.944Z,100593.25
2022-11-29T04:52:43.565Z,100597.72
2022-11-29T04:55:26.197Z,100609.78
2022-11-29T04:58:00.895Z,100603.75
2022-11-29T05:00:32.478Z,100601.41
2022-11-29T05:03:01.505Z,100616.31
2022-11-29T05:05:34.551Z,100611.38
2022-11-29T05:08:16.043Z,100619.00
2022-11-29T05:10:48.491Z,100624.91
2022-11-29T05:13:21.826Z,100627.22
2022-11-29T05:16:05.594Z,100621.63
2022-11-29T05:18:50.970Z,100630.19
2022-11-29T05:21:26.006Z,100626.91
2022-11-29T05:24:00.620Z,100634.47
2022-11-29T05:26:30.542Z,100638.59
2022-11-29T05:29:02.717Z,100645.06
2022-11-29T05:31:51.967Z,100639.44
2022-11-29T05:34:35.255Z,100645.59
2022-11-29T05:37:09.076Z,100647.63
2022-11-29T05:39:48.967Z,100641.53
2022-11-29T05:42:33.858Z,100638.03
2022-11-29T05:45:04.943Z,100626.59
2022-11-29T05:47:39.390Z,100639.81
2022-11-29T05:50:12.432Z,100642.31
2022-11-29T05:52:48.548Z,100648.47
2022-11-29T05:55:23.407Z,100649.94
2022-11-29T05:57:56.048Z,100643.28
2022-11-29T06:00:24.052Z,100642.81
2022-11-29T06:02:58.911Z,100646.81
2022-11-29T06:05:33.181Z,100647.28
2022-11-29T06:08:06.941Z,100658.34
2022-11-29T06:10:38.089Z,100655.72
2022-11-29T06:13:18.164Z,100660.38
2022-11-29T06:16:14.035Z,100657.94
2022-11-29T06:19:12.914Z,100661.41
2022-11-29T06:21:46.512Z,100657.63
2022-11-29T06:24:36.009Z,100662.34
2022-11-29T06:27:17.647Z,100666.00
2022-11-29T06:29:50.296Z,100663.88
2022-11-29T06:32:22.534Z,100664.53
2022-11-29T06:34:56.791Z,100665.03
2022-11-29T06:37:28.670Z,100660.91
2022-11-29T06:39:56.772Z,100661.88
2022-11-29T06:42:24.338Z,100661.72
2022-11-29T06:44:52.371Z,100669.19
2022-11-29T06:47:24.919Z,100666.53
2022-11-29T06:49:57.375Z,100673.97
2022-11-29T06:52:29.250Z,100673.91
2022-11-29T06:55:16.468Z,100677.59
2022-11-29T06:57:56.983Z,100685.38
2022-11-29T07:00:27.224Z,100685.22
2022-11-29T07:03:11.214Z,100684.50
2022-11-29T07:05:41.099Z,100685.25
2022-11-29T07:08:13.133Z,100694.31
2022-11-29T07:10:42.041Z,100694.31
2022-11-29T07:13:12.480Z,100693.66
2022-11-29T07:15:40.403Z,100696.31
2022-11-29T07:18:18.243Z,100703.56
2022-11-29T07:20:55.843Z,100707.06
2022-11-29T07:23:29.800Z,100701.06
2022-11-29T07:26:04.980Z,100708.84
2022-11-29T07:28:40.742Z,100713.81
2022-11-29T07:31:13.413Z,100711.88
2022-11-29T07:33:48.156Z,100717.47
2022-11-29T07:36:22.374Z,100721.44
2022-11-29T07:38:58.784Z,100723.09
2022-11-29T07:41:34.869Z,100720.81
2022-11-29T07:44:06.540Z,100723.16
2022-11-29T07:46:34.102Z,100727.56
2022-11-29T07:49:01.666Z,100733.53
2022-11-29T07:51:30.564Z,100733.91
2022-11-29T07:53:58.091Z,100725.50
2022-11-29T07:56:25.620Z,100737.09
2022-11-29T07:58:53.137Z,100737.16
2022-11-29T08:01:20.734Z,100739.28
2022-11-29T08:03:48.388Z,100734.78
2022-11-29T08:06:15.923Z,100733.13
2022-11-29T08:08:44.776Z,100744.41
2022-11-29T08:11:12.811Z,100743.97
2022-11-29T08:13:40.323Z,100742.16
2022-11-29T08:16:08.604Z,100748.09
2022-11-29T08:18:37.190Z,100759.06
2022-11-29T08:21:06.867Z,100758.44
2022-11-29T08:23:34.454Z,100766.22
2022-11-29T08:26:03.778Z,100767.38
2022-11-29T08:28:31.256Z,100765.53
2022-11-29T08:31:02.759Z,100767.41
2022-11-29T08:33:30.986Z,100764.75
2022-11-29T08:36:05.459Z,100770.19
2022-11-29T08:38:32.954Z,100765.69
2022-11-29T08:41:03.148Z,100769.34
2022-11-29T08:43:30.897Z,100775.97
2022-11-29T08:45:58.529Z,100775.00
2022-11-29T08:48:26.575Z,100780.28
2022-11-29T08:50:55.841Z,100781.78
2022-11-29T08:53:42.419Z,100780.63
2022-11-29T08:56:53.347Z,100790.97
2022-11-29T08:59:00.751Z,100788.31
2022-11-29T09:01:29.208Z,100796.41
2022-11-29T09:04:07.620Z,100786.31
2022-11-29T09:06:38.740Z,100803.75
2022-11-29T09:09:06.441Z,100796.50
2022-11-29T09:11:36.567Z,100804.28
2022-11-29T09:14:07.045Z,100808.44
2022-11-29T09:16:36.032Z,100818.19
2022-11-29T09:19:03.989Z,100812.22
2022-11-29T09:21:32.873Z,100813.72
2022-11-29T09:24:01.434Z,100808.09
2022-11-29T09:26:30.952Z,100816.38
2022-11-29T09:29:01.500Z,100811.94
2022-11-29T09:31:29.799Z,100819.00
2022-11-29T09:33:57.726Z,100813.78
2022-11-29T09:36:28.743Z,100823.53
2022-11-29T09:38:56.833Z,100825.53
2022-11-29T09:41:38.493Z,100825.16
2022-11-29T09:44:10.980Z,100833.34
2022-11-29T09:46:43.143Z,100827.56
2022-11-29T09:49:35.195Z,100835.84
2022-11-29T09:52:06.609Z,100834.25
2022-11-29T09:54:39.264Z,100839.22
2022-11-29T09:57:10.890Z,100838.22
2022-11-29T09:59:43.276Z,100834.56
2022-11-29T10:02:21.301Z,100842.78
2022-11-29T10:04:53.320Z,100838.34
2022-11-29T10:07:24.283Z,100847.16
2022-11-29T10:09:55.581Z,100839.47
2022-11-29T10:12:28.887Z,100840.28
2022-11-29T10:15:01.329Z,100840.09
2022-11-29T10:17:34.277Z,100842.59
2022-11-29T10:20:06.250Z,100845.41
2022-11-29T10:22:40.738Z,100838.84
2022-11-29T10:25:10.324Z,100831.75
2022-11-29T10:27:40.919Z,100830.28
2022-11-29T10:30:15.932Z,100832.75
2022-11-29T10:32:45.493Z,100833.72
2022-11-29T10:35:14.860Z,100825.97
2022-11-29T10:37:45.860Z,100824.34
2022-11-29T10:40:31.248Z,100821.19
2022-11-29T10:42:58.808Z,100827.66
2022-11-29T10:45:33.831Z,100823.16
2022-11-29T10:48:04.660Z,100834.41
2022-11-29T10:50:48.613Z,100834.63
2022-11-29T10:53:17.543Z,100834.63
2022-11-29T10:55:47.164Z,100831.47
2022-11-29T10:58:23.269Z,100836.41
2022-11-29T11:00:57.294Z,100837.69
2022-11-29T11:03:33.670Z,100843.69
2022-11-29T11:06:04.571Z,100834.88
2022-11-29T11:08:33.053Z,100840.91
2022-11-29T11:11:02.914Z,100837.59
2022-11-29T11:13:32.240Z,100834.28
2022-11-29T11:16:10.254Z,100835.13
2022-11-29T11:18:38.699Z,100838.78
2022-11-29T11:21:09.510Z,100836.66
2022-11-29T11:23:42.791Z,100839.19
2022-11-29T11:26:13.128Z,100843.16
2022-11-29T11:28:44.403Z,100844.97
2022-11-29T11:31:14.194Z,100851.44
2022-11-29T11:33:42.714Z,100840.00
2022-11-29T11:36:14.038Z,100848.13
2022-11-29T11:38:43.425Z,100849.75
2022-11-29T11:41:18.767Z,100862.19
2022-11-29T11:43:51.923Z,100858.22
2022-11-29T11:46:21.169Z,100852.41
2022-11-29T11:48:48.887Z,100856.72
2022-11-29T11:51:25.860Z,100853.69
2022-11-29T11:53:55.720Z,100852.53
2022-11-29T11:56:25.140Z,100854.06
2022-11-29T11:58:54.612Z,100853.94
2022-11-29T12:01:30.977Z,100858.25
2022-11-29T12:04:03.676Z,100855.91
2022-11-29T12:06:40.888Z,100849.28
2022-11-29T12:09:16.424Z,100859.09
2022-11-29T12:11:49.581Z,100866.88
2022-11-29T12:14:23.118Z,100861.91
2022-11-29T12:16:59.520Z,100865.94
2022-11-29T12:19:31.413Z,100866.28
2022-11-29T12:22:03.583Z,100866.94
2022-11-29T12:24:34.924Z,100861.13
2022-11-29T12:27:05.237Z,100869.59
2022-11-29T12:29:34.797Z,100865.47
2022-11-29T12:32:15.836Z,100869.94
2022-11-29T12:35:01.514Z,100868.63
2022-11-29T12:37:33.917Z,100879.56
2022-11-29T12:40:09.131Z,100877.91
2022-11-29T12:42:43.029Z,100875.59
2022-11-29T12:45:22.345Z,100880.56
2022-11-29T12:47:55.980Z,100883.22
2022-11-29T12:50:32.486Z,100876.94
2022-11-29T12:53:09.668Z,100878.91
2022-11-29T12:55:43.997Z,100875.91
2022-11-29T12:58:15.589Z,100878.41
2022-11-29T13:00:47.641Z,100880.25
2022-11-29T13:03:22.345Z,100878.06
2022-11-29T13:05:57.230Z,100878.59
2022-11-29T13:08:39.296Z,100879.25
2022-11-29T13:11:14.614Z,100875.94
2022-11-29T13:13:44.088Z,100886.69
2022-11-29T13:16:30.867Z,100884.22
2022-11-29T13:19:06.590Z,100881.72
2022-11-29T13:21:38.148Z,100879.53
2022-11-29T13:24:09.032Z,100886.66
2022-11-29T13:26:37.974Z,100885.66
2022-11-29T13:29:05.616Z,100886.50
2022-11-29T13:31:33.797Z,100881.88
2022-11-29T13:34:08.613Z,100886.16
2022-11-29T13:36:46.734Z,100883.03
2022-11-29T13:39:29.119Z,100884.19
2022-11-29T13:42:02.527Z,100881.53
2022-11-29T13:44:35.799Z,100886.66
2022-11-29T13:47:07.226Z,100892.16
2022-11-29T13:49:59.084Z,100887.69
2022-11-29T13:52:39.334Z,100890.00
2022-11-29T13:55:15.854Z,100898.81
2022-11-29T13:58:15.489Z,100897.31
2022-11-29T14:00:50.711Z,100900.59
2022-11-29T14:03:31.704Z,100895.09
2022-11-29T14:06:09.783Z,100900.22
2022-11-29T14:09:02.402Z,100895.84
2022-11-29T14:11:28.164Z,100904.38
2022-11-29T14:14:00.479Z,100900.09
2022-11-29T14:16:32.431Z,100907.38
2022-11-29T14:19:30.127Z,100906.75
2022-11-29T14:22:22.503Z,100912.72
2022-11-29T14:25:21.660Z,100906.44
2022-11-29T14:28:00.722Z,100910.09
2022-11-29T14:31:01.225Z,100918.69
2022-11-29T14:33:56.421Z,100923.03
2022-11-29T14:36:38.247Z,100924.69
2022-11-29T14:39:21.530Z,100926.84
2022-11-29T14:41:56.655Z,100928.00
2022-11-29T14:44:26.117Z,100929.69
2022-11-29T14:47:01.478Z,100930.69
2022-11-29T14:49:29.955Z,100931.69
2022-11-29T14:52:28.087Z,100927.00
2022-11-29T14:55:06.201Z,100928.69
2022-11-29T14:57:56.078Z,100929.66
2022-11-29T15:00:25.857Z,100934.13
2022-11-29T15:02:54.568Z,100932.16
2022-11-29T15:05:28.004Z,100934.97
2022-11-29T15:08:05.121Z,100944.44
2022-11-29T15:10:44.430Z,100946.97
2022-11-29T15:13:18.487Z,100957.09
2022-11-29T15:16:07.392Z,100942.28
2022-11-29T15:18:55.653Z,100947.28
2022-11-29T15:21:31.297Z,100950.28
2022-11-29T15:24:00.662Z,100954.59
2022-11-29T15:26:32.799Z,100947.94
2022-11-29T15:29:15.984Z,100949.94
2022-11-29T15:31:44.605Z,100953.59
2022-11-29T15:34:20.779Z,100956.75
2022-11-29T15:36:48.356Z,100958.56
2022-11-29T15:39:30.906Z,100962.88
2022-11-29T15:42:11.366Z,100959.41
2022-11-29T15:44:39.261Z,100967.88
2022-11-29T15:47:17.044Z,100966.19
2022-11-29T15:49:44.743Z,100974.78
2022-11-29T15:52:20.359Z,100978.56
2022-11-29T15:54:51.208Z,100980.78
2022-11-29T15:57:24.421Z,100983.56
2022-11-29T15:59:54.207Z,100982.72
2022-11-29T16:02:24.293Z,100986.66
2022-11-29T16:04:54.762Z,100986.22
2022-11-29T16:07:24.075Z,100994.94
2022-11-29T16:09:54.202Z,100994.66
2022-11-29T16:12:23.643Z,100989.84
2022-11-29T16:14:55.317Z,100989.34
2022-11-29T16:17:26.079Z,100989.69
2022-11-29T16:20:06.473Z,100994.13
2022-11-29T16:22:34.016Z,100990.66
2022-11-29T16:25:06.206Z,100992.91
2022-11-29T16:27:36.368Z,100997.22
2022-11-29T16:30:10.531Z,100997.88
2022-11-29T16:32:39.422Z,100993.97
2022-11-29T16:35:11.435Z,100996.50
2022-11-29T16:37:44.121Z,100999.31
2022-11-29T16:40:24.370Z,101001.66
2022-11-29T16:43:09.367Z,101003.34
2022-11-29T16:45:39.067Z,100995.00
2022-11-29T16:48:40.976Z,100997.19
2022-11-29T16:51:27.439Z,100992.69
2022-11-29T16:55:00.609Z,101004.09
2022-11-29T16:57:33.125Z,101000.97
2022-11-29T17:00:47.100Z,101008.31
2022-11-29T17:03:39.312Z,101001.31
2022-11-29T17:06:37.143Z,101004.44
2022-11-29T17:09:09.800Z,101006.28
2022-11-29T17:11:43.656Z,101006.84
2022-11-29T17:14:26.222Z,101004.16
2022-11-29T17:17:50.940Z,101017.31
2022-11-29T17:20:08.487Z,101012.59
2022-11-29T17:22:57.556Z,101016.38
2022-11-29T17:25:37.287Z,101016.78
2022-11-29T17:28:10.947Z,101012.81
2022-11-29T17:31:09.132Z,101020.31
2022-11-29T17:34:23.788Z,101018.66
2022-11-29T17:37:01.024Z,101018.16
2022-11-29T17:43:35.160Z,101016.16
2022-11-29T17:46:34.095Z,101025.63
2022-11-29T17:50:24.961Z,101021.16
2022-11-29T17:57:58.041Z,101028.66
2022-11-29T18:16:28.010Z,101059.19
2022-11-29T18:18:59.585Z,101051.13
2022-11-29T18:22:03.510Z,101054.00
2022-11-29T18:26:00.756Z,101053.16
2022-11-29T18:34:34.746Z,101049.06
2022-11-29T18:37:23.387Z,101065.09
2022-11-29T18:40:03.388Z,101068.31
2022-11-29T18:42:30.916Z,101066.50
2022-11-29T18:45:00.287Z,101079.59
2022-11-29T18:47:32.757Z,101075.63
2022-11-29T18:50:00.253Z,101072.00
2022-11-29T18:52:27.741Z,101071.03
2022-11-29T18:54:55.269Z,101077.44
2022-11-29T18:57:25.793Z,101077.13
2022-11-29T18:59:53.310Z,101076.84
2022-11-29T19:02:21.104Z,101076.41
2022-11-29T19:04:50.239Z,101078.53
2022-11-29T19:07:27.020Z,101080.34
2022-11-29T19:09:54.703Z,101079.88
2022-11-29T19:12:22.280Z,101082.91
2022-11-29T19:14:50.284Z,101094.56
2022-11-29T19:17:44.693Z,101083.00
2022-11-29T19:23:43.279Z,101083.75
2022-11-29T19:26:28.810Z,101090.78
2022-11-29T19:29:13.248Z,101083.19
2022-11-29T19:31:42.715Z,101083.34
2022-11-29T19:34:17.947Z,101088.63
2022-11-29T19:36:56.076Z,101088.03
2022-11-29T19:39:30.736Z,101090.38
2022-11-29T19:42:00.571Z,101090.69
2022-11-29T19:44:39.085Z,101093.09
2022-11-29T19:47:30.820Z,101095.91
2022-11-29T19:50:31.149Z,101099.75
2022-11-29T19:53:01.360Z,101102.97
2022-11-29T19:55:42.324Z,101103.25
2022-11-29T19:58:29.292Z,101100.50
2022-11-29T20:04:25.457Z,101097.97
2022-11-29T20:07:33.518Z,101089.03
2022-11-29T20:13:07.723Z,101088.56
2022-11-29T20:16:17.246Z,101100.38
2022-11-29T20:18:53.703Z,101097.19
2022-11-29T20:22:00.495Z,101098.63
2022-11-29T20:24:45.407Z,101105.34
2022-11-29T20:27:19.985Z,101106.19
2022-11-29T20:30:01.342Z,101104.91
2022-11-29T20:32:30.860Z,101107.78
2022-11-29T20:35:12.913Z,101103.09
2022-11-29T20:38:04.948Z,101102.16
2022-11-29T20:41:03.011Z,101108.16
2022-11-29T20:44:01.073Z,101119.28
2022-11-29T20:47:07.899Z,101115.50
2022-11-29T20:49:57.091Z,101116.78
2022-11-29T20:55:33.200Z,101121.94
2022-11-29T20:58:54.914Z,101117.47
2022-11-29T21:05:17.180Z,101118.00
2022-11-29T21:07:47.508Z,101114.59
2022-11-29T21:10:26.892Z,101120.84
2022-11-29T21:13:02.010Z,101122.16
2022-11-29T21:16:05.372Z,101123.44
2022-11-29T21:18:38.969Z,101136.81
2022-11-29T21:21:20.492Z,101132.41
2022-11-29T21:24:00.287Z,101131.84
2022-11-29T21:26:38.525Z,101133.28
2022-11-29T21:29:20.213Z,101133.28
2022-11-29T21:32:56.401Z,101135.00
2022-11-29T21:35:36.765Z,101127.66
2022-11-29T21:38:06.458Z,101126.38
2022-11-29T21:40:40.675Z,101126.28
2022-11-29T21:43:28.761Z,101130.88
2022-11-29T21:46:10.103Z,101125.00
2022-11-29T21:48:38.248Z,101124.72
2022-11-29T21:51:13.624Z,101130.50
2022-11-29T21:53:47.126Z,101127.00
2022-11-29T21:59:00.402Z,101130.09
2022-11-29T22:01:29.611Z,101125.78
2022-11-29T22:04:02.052Z,101114.97
2022-11-29T22:09:58.336Z,101127.16
2022-11-29T22:12:52.432Z,101128.53
2022-11-29T22:15:24.798Z,101121.84
2022-11-29T22:17:53.167Z,101126.22
2022-11-29T22:20:20.860Z,101126.66
2022-11-29T22:22:52.521Z,101132.41
2022-11-29T22:25:23.557Z,101124.50
2022-11-29T22:27:51.660Z,101128.13
2022-11-29T22:30:19.610Z,101127.00
2022-11-29T22:32:47.600Z,101126.00
2022-11-29T22:35:15.535Z,101126.66
2022-11-29T22:37:43.226Z,101126.38
2022-11-29T22:40:13.128Z,101134.03
2022-11-29T22:42:41.873Z,101134.13
2022-11-29T22:45:10.140Z,101138.72
2022-11-29T22:47:38.258Z,101131.09
2022-11-29T22:50:07.599Z,101128.34
2022-11-29T22:52:35.265Z,101141.16
2022-11-29T22:55:05.330Z,101142.44
2022-11-29T22:57:34.659Z,101141.09
2022-11-29T23:00:02.469Z,101145.47
2022-11-29T23:02:30.329Z,101155.19
2022-11-29T23:04:58.049Z,101151.59
2022-11-29T23:07:27.468Z,101141.97
2022-11-29T23:09:56.214Z,101153.75
2022-11-29T23:12:39.194Z,101154.13
2022-11-29T23:15:09.119Z,101145.47
2022-11-29T23:17:36.844Z,101154.41
2022-11-29T23:20:05.530Z,101153.38
2022-11-29T23:22:33.151Z,101151.72
2022-11-29T23:25:00.678Z,101153.53
2022-11-29T23:27:28.452Z,101157.06
2022-11-29T23:30:00.475Z,101152.09
2022-11-29T23:32:29.397Z,101154.47
2022-11-29T23:34:57.157Z,101153.25
2022-11-29T23:37:25.631Z,101153.25
2022-11-29T23:39:53.371Z,101157.41
2022-11-29T23:42:20.953Z,101151.00
2022-11-29T23:44:50.661Z,101149.84
2022-11-29T23:47:18.430Z,101155.78
2022-11-29T23:49:47.488Z,101148.13
2022-11-29T23:52:15.010Z,101145.38
2022-11-29T23:54:42.689Z,101153.34
2022-11-29T23:57:10.334Z,101153.47
2022-11-29T23:59:40.724Z,101151.25
